METAR Data
IDs: Format: Raw Decoded Include TAF

Data at: 1330 UTC 14 Dec 2019

PAMY 141256Z AUTO 09008KT 10SM OVC036 M02/M02 A2930 RMK AO2 SLP923 T10171022 FZRANO
PAMY 141156Z AUTO 10007KT 10SM CLR M03/M04 A2932 RMK AO2 SLP928 T10331039 11028 21078 58003 FZRANO
PAMY 141056Z AUTO 11010KT 10SM CLR M03/M03 A2932 RMK AO2 SLP931 T10281033 FZRANO
PAMY 140956Z AUTO 11010KT 10SM CLR M03/M04 A2932 RMK AO2 SLP931 T10331039 FZRANO
PAMY 140856Z AUTO 14007KT 10SM CLR M05/M06 A2933 RMK AO2 SLP931 T10501056 410061083 55001 FZRANO
PAMY 140756Z AUTO 14009KT 10SM CLR M08/M09 A2932 RMK AO2 SLP930 T10781089 FZRANO
PAMY 140656Z AUTO 15007KT 10SM CLR M07/M07 A2933 RMK AO2 SLP931 T10671072 FZRANO
PAMY 140456Z AUTO 17008KT 10SM CLR M07/M08 A2932 RMK AO2 SLP930 T10671078 FZRANO
PAMY 140356Z AUTO 16010KT 10SM CLR M07/M07 A2932 RMK AO2 SLP929 T10671072 FZRANO
PAMY 140256Z AUTO 15008KT 10SM CLR M07/M08 A2931 RMK AO2 SLP926 T10671078 53005 FZRANO
PAMY 140156Z AUTO 18010KT 10SM CLR M06/M06 A2931 RMK AO2 SLP926 T10561061 FZRANO
PAMY 140056Z AUTO 17012KT 10SM CLR M04/M04 A2930 RMK AO2 SLP922 T10391044 FZRANO
PAMY 132356Z AUTO 17010KT 10SM CLR M03/M04 A2930 RMK AO2 SLP922 60000 T10281039 11006 21033 50004 FZRANO
PAMY 132256Z AUTO 14008KT 10SM FEW032 SCT047 M01/M01 A2930 RMK AO2 SLP923 T10061011 FZRANO
PAMY 132228Z AUTO 14010KT 10SM FEW010 BKN032 OVC060 M01/M01 A2930 RMK AO2 FZRANO
PAMY 132221Z AUTO 14007KT 10SM SCT010 BKN015 OVC060 M01/M02 A2930 RMK AO2 FZRANO
PAMY 132204Z AUTO 14008KT 10SM FEW007 BKN012 OVC022 M02/M02 A2930 RMK AO2 FZRANO
PAMY 132156Z AUTO 16008KT 10SM SCT012 BKN017 OVC022 M02/M02 A2930 RMK AO2 SNB11E21 SLP922 P0000 T10171017 FZRANO
PAMY 132147Z AUTO 15006KT 10SM BKN020 BKN039 OVC050 M02/M02 A2929 RMK AO2 SNB11E21 P0000 FZRANO
PAMY 132113Z AUTO 14007KT 10SM -SN SCT007 OVC046 M02/M02 A2929 RMK AO2 SNB11 P0000 FZRANO
PAMY 132056Z AUTO 14007KT 10SM OVC007 M02/M02 A2928 RMK AO2 CIG 002V009 SLP917 T10221022 50006 FZRANO
PAMY 132051Z AUTO 14007KT 10SM OVC007 M02/M02 A2929 RMK AO2 CIG 002V009 FZRANO
PAMY 132041Z AUTO 15009KT 10SM BKN004 OVC009 M02/M02 A2928 RMK AO2 FZRANO
PAMY 132034Z AUTO 15010KT 2 1/2SM BR BKN004 OVC007 M02/M02 A2928 RMK AO2 FZRANO
PAMY 132031Z AUTO 15009KT 1SM BR OVC004 M02/M02 A2928 RMK AO2 FZRANO
PAMY 132003Z AUTO 14006KT 1/2SM FZFG OVC004 M02/M03 A2927 RMK AO2 FZRANO
PAMY 131956Z AUTO 14006KT 3/4SM BR OVC004 M02/M02 A2927 RMK AO2 SLP912 T10221022 FZRANO
PAMY 131954Z AUTO 14006KT 3/4SM BR OVC004 M02/M02 A2927 RMK AO2 FZRANO
PAMY 131951Z AUTO 14005KT 1 3/4SM BR OVC004 M02/M02 A2927 RMK AO2 FZRANO
PAMY 131947Z AUTO 14005KT 6SM BR OVC004 M02/M02 A2927 RMK AO2 CIG 003V008 FZRANO
PAMY 131924Z AUTO 14003KT 7SM BKN006 OVC010 M02/M02 A2927 RMK AO2 CIG 004V010 FZRANO
PAMY 131856Z AUTO 19007KT 10SM FEW004 OVC012 M03/M03 A2927 RMK AO2 SLP912 T10281028 FZRANO
PAMY 131756Z AUTO 16006KT 10SM FEW005 BKN010 OVC041 M03/M03 A2925 RMK AO2 SNE22 SLP906 P0000 60000 T10281033 11017 21033 53001 FZRANO
PAMY 131741Z AUTO 15006KT 10SM FEW005 BKN012 OVC037 M03/M03 A2925 RMK AO2 SNE22 P0000 FZRANO
PAMY 131730Z AUTO 15006KT 10SM BKN012 OVC037 M03/M03 A2925 RMK AO2 SNE22 P0000 FZRANO
PAMY 131707Z AUTO 16004KT 4SM -SN BR SCT012 OVC022 M02/M02 A2925 RMK AO2 P0000 FZRANO
PAMY 131652Z AUTO 16004KT 2SM -SN BR FEW010 BKN017 OVC022 M02/M02 A2924 RMK AO2 UPB05E10SNE05B10 P0000 FZRANO
PAMY 131639Z AUTO 17003KT 1 3/4SM -SN BR SCT010 BKN015 OVC023 M02/M02 A2924 RMK AO2 UPB05E10SNE05B10 P0000 FZRANO
PAMY 131632Z AUTO 18003KT 3SM -SN BR SCT010 BKN015 OVC020 M02/M02 A2924 RMK AO2 UPB05E10SNE05B10 P0000 FZRANO
PAMY 131610Z AUTO 19003KT 9SM -SN FEW006 BKN010 OVC015 M02/M02 A2925 RMK AO2 UPB05E10SNE05B10 CIG 009V013 P0000 FZRANO
PAMY 131556Z AUTO 19003KT 6SM -SN BR FEW005 BKN015 OVC041 M02/M02 A2925 RMK AO2 UPE17B37E51SNB17E37B51 SLP905 P0000 T10171022 FZRANO
PAMY 131551Z AUTO 19003KT 5SM -SN BR SCT005 BKN015 OVC040 M02/M02 A2925 RMK AO2 UPE17B37E51SNB17E37B51 P0000 FZRANO
PAMY 131519Z AUTO 00000KT 3SM -SN BR OVC005 M02/M02 A2924 RMK AO2 UPE17SNB17 CIG 002V007 P0000 FZRANO
PAMY 131513Z AUTO 00000KT 1 3/4SM UP BR OVC005 M02/M02 A2924 RMK AO2 CIG 002V007 P0000 FZRANO
PAMY 131456Z AUTO 00000KT 1 1/4SM UP BR OVC003 M02/M02 A2924 RMK AO2 UPB46SNB16E46 SLP903 P0000 60000 T10171022 58003 FZRANO
PAMY 131434Z AUTO 00000KT 1 1/4SM -SN BR OVC003 M02/M02 A2925 RMK AO2 SNB16 CIG 003V006 P0000 FZRANO
PAMY 131426Z AUTO 11003KT 2SM -SN BR OVC003 M02/M02 A2925 RMK AO2 SNB16 P0000 FZRANO
PAMY 131412Z AUTO 14003KT 3SM BR OVC003 M02/M02 A2925 RMK AO2 FZRANO
PAMY 131356Z AUTO 00000KT 2 1/2SM BR OVC003 M02/M02 A2925 RMK AO2 UPB18E35SNB03E18 SLP906 P0000 T10171022 FZRANO
PAMY 131354Z AUTO 21003KT 2 1/2SM BR OVC003 M02/M02 A2925 RMK AO2 UPB18E35SNB03E18 P0000 FZRANO
PAMY 131333Z AUTO 00000KT 3SM UP BR BKN003 OVC007 M02/M02 A2925 RMK AO2 UPB18SNB03E18 P0000 FZRANO
PAMY 131326Z AUTO 20003KT 2 1/2SM UP BR OVC005 M02/M02 A2925 RMK AO2 UPB18SNB03E18 CIG 002V007 P0000 FZRANO
PAMY 131318Z AUTO 17003KT 1 1/4SM UP BR BKN003 OVC007 M02/M02 A2925 RMK AO2 UPB18SNB03E18 P0000 FZRANO
PAMY 131314Z AUTO 17004KT 1SM -SN BR OVC007 M02/M02 A2925 RMK AO2 SNB03 CIG 003V010 P0000 FZRANO
PAMY 131305Z AUTO 18003KT 1 1/4SM -SN BR BKN007 OVC012 M02/M02 A2925 RMK AO2 SNB03 P0000 FZRANO
PAMY 131256Z AUTO 19004KT 2 1/2SM BR SCT007 OVC014 M02/M02 A2925 RMK AO2 SLP906 T10221022 FZRANO
PAMY 131252Z AUTO 20004KT 4SM BR BKN010 OVC014 M02/M02 A2925 RMK AO2 CIG 007V012 FZRANO
PAMY 131222Z AUTO 15003KT 7SM FEW005 SCT009 OVC016 M02/M03 A2925 RMK AO2 FZRANO
PAMY 131156Z AUTO 17003KT 4SM BR BKN009 OVC019 M02/M03 A2925 RMK AO2 SLP905 60000 T10221028 11022 21022 55001 FZRANO
PAMY 131132Z AUTO 20003KT 3SM BR SCT003 OVC021 M02/M03 A2924 RMK AO2 FZRANO
PAMY 131109Z AUTO 19003KT 2 1/2SM BR OVC003 M02/M02 A2925 RMK AO2 FZRANO
PAMY 131056Z AUTO 20003KT 4SM BR OVC003 M02/M02 A2924 RMK AO2 UPB03E11SNE03 SLP904 P0000 T10221022 FZRANO
PAMY 130956Z AUTO 26004KT 3SM -SN BR OVC003 M02/M02 A2925 RMK AO2 UPB0856E32SNE0856B46 SLP905 P0000 T10221022 FZRANO
PAMY 130903Z AUTO 25007KT 3SM UP BR BKN003 BKN011 OVC017 M02/M03 A2925 RMK AO2 UPB0856SNE0856 P0000 FZRANO
PAMY 130852Z AUTO 24007KT 2 1/2SM -SN BR BKN003 BKN011 OVC024 M02/M03 A2925 RMK AO2 CIG 002V008 SLP906 P0000 60000 T10221028 410111067 53001 FZRANO
PAMY 130851Z AUTO 24006KT 2 1/2SM -SN BR BKN003 BKN011 OVC024 M02/M03 A2925 RMK AO2 CIG 002V008 P0000 410111067 FZRANO
PAMY 130841Z AUTO 24006KT 2 1/2SM -SN BR FEW003 SCT011 OVC024 M02/M02 A2925 RMK AO2 P0000 FZRANO
PAMY 130826Z AUTO 00000KT 3SM -SN BR FEW003 OVC024 M02/M03 A2925 RMK AO2 P0000 FZRANO
PAMY 130819Z AUTO 00000KT 2 1/2SM -SN BR FEW005 OVC024 M02/M03 A2925 RMK AO2 P0000 FZRANO
PAMY 130808Z AUTO 30003KT 2 1/2SM -SN BR BKN005 OVC024 M02/M03 A2925 RMK AO2 CIG 003V007 P0000 FZRANO
PAMY 130756Z AUTO 31003KT 3SM -SN BR BKN005 OVC024 M02/M03 A2924 RMK AO2 CIG 003V007 SLP904 P0000 T10221028 FZRANO
PAMY 130656Z AUTO 35004KT 6SM -SN BR OVC005 M02/M03 A2925 RMK AO2 SNE01B30 SLP905 P0000 T10221028 FZRANO
PAMY 130638Z AUTO 33004KT 8SM -SN BKN005 BKN010 OVC027 M02/M03 A2925 RMK AO2 SNE01B30 P0000 FZRANO
PAMY 130614Z AUTO 33003KT 10SM BKN007 OVC029 M02/M03 A2925 RMK AO2 SNE01 CIG 005V010 P0000 FZRANO
PAMY 130556Z AUTO 36003KT 9SM -SN OVC005 M02/M03 A2925 RMK AO2 UPE05SNB05 SLP905 P0000 60000 T10221028 11017 21033 58002 FZRANO
PAMY 130456Z AUTO 34004KT 5SM UP BR OVC005 M02/M03 A2926 RMK AO2 UPB52SNB41E52 SLP907 P0000 T10221028 FZRANO
PAMY 130423Z AUTO 02004KT 10SM OVC005 M02/M03 A2926 RMK AO2 FZRANO
PAMY 130356Z AUTO 02005KT 10SM OVC003 M02/M03 A2926 RMK AO2 SLP908 T10221028 FZRANO
PAMY 130348Z AUTO 03005KT 3SM BR OVC003 M02/M03 A2925 RMK AO2 FZRANO
PAMY 130334Z AUTO 03004KT 1 3/4SM BR OVC003 M02/M03 A2925 RMK AO2 FZRANO
PAMY 130328Z AUTO 03004KT 3SM BR OVC003 M02/M03 A2925 RMK AO2 FZRANO
PAMY 130320Z AUTO 35003KT 2 1/2SM BR OVC003 M02/M03 A2925 RMK AO2 FZRANO
PAMY 130313Z AUTO 00000KT 1 3/4SM BR OVC003 M02/M03 A2925 RMK AO2 FZRANO
PAMY 130301Z AUTO 35003KT 2SM BR OVC003 M02/M03 A2925 RMK AO2 FZRANO
PAMY 130256Z AUTO 32003KT 1SM BR OVC003 M02/M03 A2925 RMK AO2 UPB05E29SNE05 SLP907 P0000 60000 T10221028 55001 FZRANO
PAMY 130242Z AUTO 01003KT 1 1/4SM BR OVC003 M02/M02 A2925 RMK AO2 UPB05E29SNE05 P0000 FZRANO
PAMY 130235Z AUTO 00000KT 3/4SM BR OVC003 M02/M02 A2925 RMK AO2 UPB05E29SNE05 P0000 FZRANO
PAMY 130226Z AUTO 05006KT 1/2SM UP FZFG OVC003 M02/M02 A2924 RMK AO2 UPB05SNE05 P0000 FZRANO
PAMY 130156Z AUTO 27005KT 1/4SM -SN FZFG OVC003 M03/M03 A2925 RMK AO2 UPE04B20E56SNB11E20B35E47B56 SLP906 P0000 T10281033 FZRANO